Aviation Digital Data Service (ADDS)

Output produced by METARs form (0022 UTC 17 July 2019)
found at http://www.aviationweather.gov/metar/data/
 
SEGU 162230Z 1700/1724 24014KT 9999 BKN020 BKN100 
     BECMG 1703/1704 SCT020 BKN100 
     FM171100 20006KT 9999 BKN020 BKN100 
     FM171900 16008KT 9999 SCT020 BKN100 TX30/1719Z TN22/1710Z
       
SELT 162230Z 1700/1724 VRB03KT 9999 BKN030 
     TEMPO 1711/1713 6000 BCFG FEW010 BKN030 
     FM171400 18008KT 9999 BKN030 
     BECMG 1717/1718 17015KT TX16/1719Z TN04/1711Z
       
SEMT 162230Z 1700/1724 21005KT 9999 SCT023 
     BECMG 1704/1705 OVC020 
     BECMG 1712/1713 21010KT 
     BECMG 1718/1719 SCT023 TX28/1720Z TN21/1710Z
       
SEQM 162230Z 1700/1724 VRB03KT 9999 FEW030 SCT300 
     BECMG 1704/1705 FEW005 BKN100 
     BECMG 1712/1713 SCT033 SCT100 
     FM171800 36012KT 9999 SCT033 BKN100 TX24/1719Z TN07/1711Z